Time;durP1;ratioP1;P1;durP2;ratioP2;P2;SDS_P1;SDS_P2;PMS_P1;PMS_P2;Temp;Humidity;BMP_temperature;BMP_pressure;BME280_temperature;BME280_humidity;BME280_pressure;Samples;Min_cycle;Max_cycle;Signal;HPM_P1;HPM_P2
2024/01/25 00:00:44;;;;;;;8.00;3.58;;;;;;;7.75;59.39;100218.81;4318135;33;20189;-91
2024/01/25 00:03:20;;;;;;;11.73;3.87;;;;;;;7.78;59.06;100213.37;4328573;33;20167;-91
2024/01/25 00:05:52;;;;;;;15.05;4.40;;;;;;;7.61;59.33;100196.66;4319720;33;20162;-91
2024/01/25 00:09:00;;;;;;;7.10;3.33;;;;;;;7.70;59.08;100199.75;4332683;33;20142;-91
2024/01/25 00:11:31;;;;;;;8.20;4.45;;;;;;;7.74;58.65;100198.66;4320336;33;20143;-91
2024/01/25 00:14:08;;;;;;;;;;;;;;;7.58;59.05;100193.31;4317067;28;20135;-91
2024/01/25 00:16:55;;;;;;;9.32;3.55;;;;;;;7.60;58.99;100196.72;4318341;33;20027;-91
2024/01/25 00:19:25;;;;;;;11.73;4.45;;;;;;;7.69;58.58;100196.25;4306209;33;20428;-91
2024/01/25 00:21:56;;;;;;;10.43;3.20;;;;;;;7.61;58.69;100182.63;4330256;33;20199;-91
2024/01/25 00:24:28;;;;;;;;;;;;;;;7.76;58.16;100175.66;4305718;33;20274;-91
2024/01/25 00:27:10;;;;;;;11.02;3.78;;;;;;;7.93;57.69;100180.91;4315425;33;20018;-91
2024/01/25 00:29:41;;;;;;;15.40;3.78;;;;;;;7.88;57.71;100177.69;4317599;33;20091;-91
2024/01/25 00:32:14;;;;;;;10.55;3.28;;;;;;;7.89;57.08;100176.72;4318442;33;20084;-92
2024/01/25 00:34:48;;;;;;;12.43;2.90;;;;;;;8.00;57.14;100179.66;4318674;33;20094;-91
2024/01/25 00:37:41;;;;;;;13.68;3.92;;;;;;;8.19;56.63;100176.84;4330940;33;20056;-91
2024/01/25 00:40:36;;;;;;;10.98;3.47;;;;;;;8.30;56.07;100182.38;4330464;33;20100;-91
2024/01/25 00:43:27;;;;;;;12.90;3.22;;;;;;;8.31;55.87;100189.34;4346171;27;20102;-92
2024/01/25 00:45:59;;;;;;;7.70;2.62;;;;;;;8.31;55.65;100183.22;4330138;33;20119;-91
2024/01/25 00:48:31;;;;;;;13.43;3.37;;;;;;;8.32;55.68;100180.53;4318683;33;20088;-92
2024/01/25 00:51:29;;;;;;;7.15;3.15;;;;;;;8.25;55.78;100191.50;4332331;33;20122;-91
2024/01/25 00:54:01;;;;;;;16.27;3.47;;;;;;;8.28;55.74;100189.53;4319976;33;20119;-92
2024/01/25 00:56:35;;;;;;;8.05;2.78;;;;;;;8.30;55.72;100174.47;4314782;33;20390;-92
2024/01/25 00:59:22;;;;;;;12.40;3.30;;;;;;;8.26;55.40;100185.28;4318546;33;20178;-92
2024/01/25 01:02:07;;;;;;;9.67;2.63;;;;;;;8.33;55.43;100186.66;4307525;33;20167;-91
2024/01/25 01:04:46;;;;;;;13.20;3.25;;;;;;;8.30;55.40;100181.53;4332918;33;20441;-91
2024/01/25 01:07:20;;;;;;;15.10;3.20;;;;;;;8.34;55.11;100186.53;4333038;33;20150;-92
2024/01/25 01:10:28;;;;;;;9.38;2.58;;;;;;;8.22;55.27;100183.75;4332856;33;20416;-91
2024/01/25 01:12:59;;;;;;;12.13;3.35;;;;;;;8.40;55.11;100198.59;4322742;28;20566;31
2024/01/25 01:15:30;;;;;;;8.18;3.10;;;;;;;8.37;54.88;100188.22;4289387;33;20156;-91
2024/01/25 01:18:14;;;;;;;14.73;3.83;;;;;;;8.38;54.90;100182.84;4303861;33;20500;-92
2024/01/25 01:21:07;;;;;;;14.77;3.53;;;;;;;8.48;54.42;100182.34;4303746;33;20143;-92
2024/01/25 01:23:38;;;;;;;15.20;3.45;;;;;;;8.41;54.47;100184.47;4303941;33;20151;-92
2024/01/25 01:26:23;;;;;;;15.52;8.73;;;;;;;8.27;54.86;100173.78;4304246;33;20167;-91
2024/01/25 01:29:01;;;;;;;7.72;2.53;;;;;;;8.28;54.98;100191.34;4303433;33;20136;-91
2024/01/25 01:31:33;;;;;;;12.30;2.50;;;;;;;8.31;54.66;100189.34;4303613;33;20425;-92
2024/01/25 01:34:09;;;;;;;15.70;2.72;;;;;;;8.29;54.62;100180.69;4290477;33;20156;-92
2024/01/25 01:37:10;;;;;;;14.43;3.47;;;;;;;8.06;55.29;100186.37;4303692;33;20198;-92
2024/01/25 01:40:21;;;;;;;8.43;2.67;;;;;;;8.21;55.16;100187.31;4290155;33;20175;-92
2024/01/25 01:43:39;;;;;;;12.48;2.85;;;;;;;8.28;54.74;100184.25;4315593;28;20152;-92
2024/01/25 01:46:34;;;;;;;10.95;4.20;;;;;;;8.37;54.81;100186.41;4318229;33;20258;-92
2024/01/25 01:49:12;;;;;;;14.13;3.97;;;;;;;8.25;54.82;100175.66;4318129;33;20151;-91
2024/01/25 01:51:49;;;;;;;12.37;3.08;;;;;;;8.28;54.77;100172.84;4304472;33;20147;-91
2024/01/25 01:54:56;;;;;;;9.52;2.70;;;;;;;8.12;55.27;100168.41;4317737;33;20143;-92
2024/01/25 01:57:29;;;;;;;9.20;4.43;;;;;;;8.17;55.33;100168.16;4304656;33;20147;-92
2024/01/25 02:00:25;;;;;;;13.05;3.05;;;;;;;8.13;55.36;100156.06;4317269;33;20142;-92
2024/01/25 02:03:18;;;;;;;16.52;3.87;;;;;;;8.20;55.35;100165.38;4314181;33;20194;-91
2024/01/25 02:06:02;;;;;;;9.13;3.53;;;;;;;8.12;55.48;100159.66;4325728;33;20170;-92
2024/01/25 02:09:18;;;;;;;9.35;2.80;;;;;;;8.18;55.51;100167.22;4329459;33;20107;-91
2024/01/25 02:12:22;;;;;;;9.55;3.00;;;;;;;8.30;55.17;100148.06;4332355;33;20134;-91
2024/01/25 02:15:44;;;;;;;11.32;3.03;;;;;;;8.12;55.65;100142.03;4271035;33;20161;-92
2024/01/25 02:18:44;;;;;;;12.45;3.85;;;;;;;8.18;55.57;100140.81;4260460;33;20168;-91
2024/01/25 02:21:18;;;;;;;13.55;2.58;;;;;;;8.20;55.05;100125.78;4273046;33;20147;-92
2024/01/25 02:23:54;;;;;;;6.95;3.30;;;;;;;8.25;55.46;100130.78;4272453;33;20168;-91
2024/01/25 02:26:25;;;;;;;15.52;6.45;;;;;;;8.42;55.22;100122.78;4272861;33;20445;-91
2024/01/25 02:29:20;;;;;;;11.43;2.50;;;;;;;8.31;55.48;100118.06;4261054;33;20164;-91
2024/01/25 02:32:09;;;;;;;11.15;2.58;;;;;;;8.39;55.37;100122.94;4272408;33;20159;-91
2024/01/25 02:34:39;;;;;;;10.07;2.65;;;;;;;8.40;55.26;100122.03;4299388;33;20160;-91
2024/01/25 02:37:12;;;;;;;;;;;;;;;8.44;55.35;100118.28;4303963;33;20192;-92
2024/01/25 02:40:05;;;;;;;9.43;2.67;;;;;;;8.33;55.77;100107.44;4303583;33;20023;-91
2024/01/25 02:43:01;;;;;;;10.15;2.53;;;;;;;8.38;55.74;100111.53;4303633;33;20147;-91
2024/01/25 02:45:59;;;;;;;13.38;3.03;;;;;;;8.52;55.15;100121.34;4273898;33;20151;-91
2024/01/25 02:48:29;;;;;;;12.90;3.22;;;;;;;8.51;55.34;100113.47;4275828;33;20162;-92
2024/01/25 02:51:23;;;;;;;9.57;2.87;;;;;;;8.55;55.21;100123.81;4288926;33;20516;-91
2024/01/25 02:54:28;;;;;;;7.68;2.33;;;;;;;8.57;55.16;100118.44;4294056;33;20152;-92
2024/01/25 02:57:22;;;;;;;19.20;4.55;;;;;;;8.53;55.48;100132.75;4297138;33;20151;-92
2024/01/25 03:00:13;;;;;;;14.27;2.87;;;;;;;8.79;54.93;100132.09;4297632;33;20163;-92
2024/01/25 03:03:10;;;;;;;9.00;2.58;;;;;;;8.58;55.39;100123.59;4293603;33;20112;-92
2024/01/25 03:09:05;;;;;;;9.15;3.30;;;;;;;9.08;55.62;100132.19;4375491;31;3615124;-73
2024/01/25 03:11:36;;;;;;;15.43;3.17;;;;;;;9.08;55.62;100132.19;4449528;32;20167;-73
2024/01/25 03:14:06;;;;;;;7.95;3.00;;;;;;;8.54;56.95;100135.28;4440089;27;20567;-74
2024/01/25 03:16:37;;;;;;;18.37;3.37;;;;;;;8.60;57.02;100137.59;4418077;32;20136;-73
2024/01/25 03:19:08;;;;;;;15.23;5.37;;;;;;;8.57;57.45;100144.84;4418227;32;20176;-73
2024/01/25 03:21:38;;;;;;;13.15;3.47;;;;;;;8.46;57.82;100148.06;4418093;32;20168;-73
2024/01/25 03:24:15;;;;;;;12.25;3.55;;;;;;;8.54;57.98;100142.37;4418431;32;20141;-73
2024/01/25 03:26:48;;;;;;;10.73;2.80;;;;;;;8.35;58.54;100138.13;4417981;32;20145;-74
2024/01/25 03:29:18;;;;;;;14.90;3.20;;;;;;;8.43;58.43;100148.25;4418340;32;20165;-73
2024/01/25 03:31:48;;;;;;;13.07;3.80;;;;;;;8.47;58.36;100148.94;4418011;32;20144;-73
2024/01/25 03:34:17;;;;;;;12.13;4.50;;;;;;;8.41;58.70;100139.56;4412129;32;20513;-73
2024/01/25 03:36:53;;;;;;;11.65;3.50;;;;;;;8.34;58.70;100140.81;4418198;32;20137;-73
2024/01/25 03:39:24;;;;;;;8.77;2.90;;;;;;;8.35;58.86;100151.31;4418113;32;20149;-73
2024/01/25 03:41:53;;;;;;;9.65;2.75;;;;;;;8.29;58.90;100132.31;4417926;32;20153;-73
2024/01/25 03:44:23;;;;;;;13.07;3.92;;;;;;;8.34;58.91;100132.91;4421398;27;20169;-73
2024/01/25 03:46:53;;;;;;;13.77;3.65;;;;;;;8.37;58.80;100127.47;4418152;32;20141;-73
2024/01/25 03:49:23;;;;;;;13.02;3.30;;;;;;;8.37;58.64;100140.69;4417806;32;20176;-73
2024/01/25 03:51:53;;;;;;;10.88;3.00;;;;;;;8.32;58.73;100125.06;4418063;32;20168;-73
2024/01/25 03:54:23;;;;;;;12.73;3.30;;;;;;;8.34;58.45;100131.09;4417860;32;20168;-73
2024/01/25 03:56:53;;;;;;;16.48;4.32;;;;;;;8.24;58.52;100121.16;4417619;32;20165;-74
2024/01/25 03:59:23;;;;;;;9.68;3.08;;;;;;;8.38;58.17;100118.63;4418266;32;20175;-73
2024/01/25 04:01:52;;;;;;;14.13;4.65;;;;;;;8.38;58.08;100131.81;4417850;32;20164;-74
2024/01/25 04:04:22;;;;;;;11.48;3.47;;;;;;;8.49;57.42;100133.84;4417802;32;20540;-74
2024/01/25 04:06:52;;;;;;;13.15;3.72;;;;;;;8.50;57.19;100131.13;4417737;32;20164;-73
2024/01/25 04:09:24;;;;;;;9.05;3.35;;;;;;;8.49;57.01;100137.34;4417760;32;20164;-73
2024/01/25 04:11:53;;;;;;;13.98;3.62;;;;;;;8.49;57.17;100140.00;4418074;32;20164;-74
2024/01/25 04:14:23;;;;;;;8.93;3.83;;;;;;;8.52;57.15;100139.81;4421075;27;20145;-74
2024/01/25 04:16:54;;;;;;;16.83;4.35;;;;;;;8.54;57.09;100145.00;4417826;32;20176;-73
2024/01/25 04:19:24;;;;;;;12.88;4.68;;;;;;;8.53;57.13;100136.22;4411575;32;20157;-73
2024/01/25 04:21:54;;;;;;;19.10;4.50;;;;;;;8.56;57.19;100138.72;4407567;32;20168;-73
2024/01/25 04:24:33;;;;;;;13.10;3.80;;;;;;;8.71;56.72;100136.09;4407842;32;20137;-74
2024/01/25 04:27:02;;;;;;;10.98;3.85;;;;;;;8.23;57.95;100132.63;4407480;32;20424;-74
2024/01/25 04:29:32;;;;;;;19.08;4.07;;;;;;;8.40;57.62;100129.97;4393936;32;20501;-74
2024/01/25 04:32:01;;;;;;;13.40;3.83;;;;;;;8.55;57.37;100128.22;4407111;32;20149;-73
2024/01/25 04:34:31;;;;;;;9.95;4.30;;;;;;;8.51;57.38;100138.13;4395513;32;20149;-74
2024/01/25 04:37:01;;;;;;;13.57;5.22;;;;;;;8.52;57.55;100134.53;4401484;32;20137;-74
2024/01/25 04:39:32;;;;;;;14.73;4.62;;;;;;;8.43;57.77;100136.84;4401618;32;20160;-73
2024/01/25 04:42:02;;;;;;;11.45;4.97;;;;;;;8.37;58.06;100143.31;4392488;32;20146;-73
2024/01/25 04:44:31;;;;;;;17.40;3.92;;;;;;;8.36;57.76;100157.44;4400595;27;20710;-73
2024/01/25 04:47:02;;;;;;;12.10;3.42;;;;;;;8.41;57.82;100162.50;4392217;32;20413;-74
2024/01/25 04:49:32;;;;;;;13.70;3.92;;;;;;;8.41;57.91;100165.97;4392454;32;20141;-74
2024/01/25 04:52:03;;;;;;;9.73;3.25;;;;;;;8.37;58.00;100175.84;4392179;32;20134;-74
2024/01/25 04:54:37;;;;;;;15.35;3.95;;;;;;;8.59;57.61;100179.91;4392407;32;20189;-74
2024/01/25 04:57:09;;;;;;;10.13;3.62;;;;;;;8.59;57.41;100177.28;4392190;32;20153;-74
2024/01/25 04:59:39;;;;;;;11.98;3.10;;;;;;;8.43;57.65;100185.22;4390856;32;20478;-74
2024/01/25 05:02:09;;;;;;;16.60;3.40;;;;;;;8.47;57.75;100191.19;4392529;32;20129;-73
2024/01/25 05:04:39;;;;;;;13.00;4.05;;;;;;;8.24;58.11;100182.72;4391953;32;20166;-74
2024/01/25 05:07:11;;;;;;;11.75;3.10;;;;;;;8.47;57.60;100193.81;4392141;32;20160;-73
2024/01/25 05:09:42;;;;;;;7.10;2.53;;;;;;;8.32;57.89;100188.44;4391878;32;20154;-74
2024/01/25 05:12:11;;;;;;;12.65;4.22;;;;;;;8.48;57.42;100191.09;4392026;32;20434;-74
2024/01/25 05:14:41;;;;;;;13.93;4.22;;;;;;;8.51;57.16;100185.66;4395582;27;20165;-74
2024/01/25 05:17:10;;;;;;;9.88;3.08;;;;;;;8.55;57.20;100168.72;4378889;32;20169;-73
2024/01/25 05:19:43;;;;;;;16.98;4.35;;;;;;;8.35;57.77;100176.84;4391885;32;20151;-73
2024/01/25 05:22:12;;;;;;;8.77;2.87;;;;;;;8.52;57.31;100174.16;4392086;32;20159;-74
2024/01/25 05:24:50;;;;;;;8.52;3.33;;;;;;;8.71;56.91;100175.72;4391925;32;20149;-74
2024/01/25 05:27:20;;;;;;;14.45;3.92;;;;;;;8.49;57.18;100173.47;4396668;32;20153;-74
2024/01/25 05:29:51;;;;;;;14.52;3.62;;;;;;;8.34;57.52;100177.78;4405424;32;20144;-74
2024/01/25 05:32:21;;;;;;;12.68;3.70;;;;;;;8.43;57.71;100182.56;4391704;32;20149;-73
2024/01/25 05:34:50;;;;;;;17.00;4.35;;;;;;;8.40;57.76;100185.41;4406171;32;20307;-74
2024/01/25 05:37:19;;;;;;;12.00;4.15;;;;;;;8.39;58.01;100186.31;4396107;32;20161;-74
2024/01/25 05:39:57;;;;;;;13.38;3.25;;;;;;;8.43;57.91;100179.94;4399751;32;20168;-74
2024/01/25 05:42:26;;;;;;;15.85;4.07;;;;;;;8.04;58.97;100173.25;4401762;32;20297;-74
2024/01/25 05:44:55;;;;;;;8.57;2.90;;;;;;;8.20;58.81;100170.62;4404947;27;20240;-74
2024/01/25 05:47:25;;;;;;;15.98;3.92;;;;;;;8.02;59.26;100187.47;4407329;32;20148;-74
2024/01/25 05:49:58;;;;;;;13.38;3.55;;;;;;;8.31;58.69;100172.66;4407081;32;20161;-74
2024/01/25 05:52:27;;;;;;;13.35;3.58;;;;;;;8.27;58.81;100168.50;4406925;32;20137;-74
2024/01/25 05:55:00;;;;;;;14.60;3.25;;;;;;;7.98;59.45;100165.66;4407126;32;20148;-74
2024/01/25 05:57:39;;;;;;;12.63;3.15;;;;;;;7.97;59.77;100165.75;4406922;32;20168;-74
2024/01/25 06:00:11;;;;;;;12.95;4.80;;;;;;;8.02;59.64;100163.72;4407060;32;20160;-74
2024/01/25 06:02:40;;;;;;;12.55;4.47;;;;;;;8.02;59.63;100161.94;4406277;32;20172;-74
2024/01/25 06:05:13;;;;;;;13.23;4.28;;;;;;;7.86;60.16;100154.00;4392175;32;20142;-74
2024/01/25 06:07:43;;;;;;;13.38;4.57;;;;;;;8.13;59.31;100154.28;4413358;32;20156;-74
2024/01/25 06:10:14;;;;;;;14.75;3.45;;;;;;;7.92;59.90;100154.59;4411564;32;20439;-74
2024/01/25 06:12:46;;;;;;;12.57;3.65;;;;;;;8.02;59.76;100161.94;4413987;32;20179;-74
2024/01/25 06:15:15;;;;;;;11.57;2.80;;;;;;;7.95;59.81;100154.44;4428446;26;20144;-74
2024/01/25 06:17:45;;;;;;;10.75;3.42;;;;;;;8.12;59.27;100167.56;4437519;32;20412;-74
2024/01/25 06:20:15;;;;;;;15.30;4.30;;;;;;;8.02;59.52;100159.28;4437670;32;20160;-74
2024/01/25 06:22:45;;;;;;;13.50;4.05;;;;;;;8.09;59.34;100163.31;4437215;32;20152;-74
2024/01/25 06:25:16;;;;;;;10.48;3.42;;;;;;;8.31;58.73;100159.47;4437254;32;20462;-74
2024/01/25 06:27:45;;;;;;;10.45;4.00;;;;;;;8.26;58.50;100167.66;4437388;32;20411;-74
2024/01/25 06:30:15;;;;;;;13.07;4.10;;;;;;;8.21;58.65;100171.50;4437218;32;20148;-74
2024/01/25 06:32:44;;;;;;;15.07;3.30;;;;;;;8.20;58.29;100165.38;4437324;32;20184;-74
2024/01/25 06:35:15;;;;;;;7.80;3.00;;;;;;;8.28;57.86;100160.50;4437690;32;20143;-74
2024/01/25 06:37:45;;;;;;;18.23;3.35;;;;;;;8.38;57.71;100168.78;4437201;32;20137;-74
2024/01/25 06:40:16;;;;;;;10.95;3.00;;;;;;;8.45;57.35;100170.16;4437226;32;20187;-74
2024/01/25 06:42:45;;;;;;;13.37;3.07;;;;;;;8.46;57.22;100171.84;4436972;32;20431;-74
2024/01/25 06:45:15;;;;;;;11.80;3.33;;;;;;;8.45;56.82;100177.22;4453012;26;20129;-74
2024/01/25 06:47:44;;;;;;;7.47;2.78;;;;;;;8.51;56.86;100177.75;4437123;32;20474;-73
2024/01/25 06:50:13;;;;;;;16.92;3.25;;;;;;;8.52;56.35;100183.88;4437484;32;20187;-74
2024/01/25 06:52:43;;;;;;;26.55;4.35;;;;;;;8.65;56.30;100182.22;4437045;32;20141;-74
2024/01/25 06:55:13;;;;;;;14.30;3.20;;;;;;;8.61;56.20;100170.97;4436885;32;20143;-74
2024/01/25 06:57:48;;;;;;;7.72;3.12;;;;;;;8.81;55.63;100159.28;4436832;32;20184;-74
2024/01/25 07:00:20;;;;;;;6.85;2.92;;;;;;;8.81;55.30;100167.19;4436782;32;20133;-74
2024/01/25 07:02:50;;;;;;;13.25;3.42;;;;;;;8.90;54.74;100162.31;4436968;32;20267;-74
2024/01/25 07:05:20;;;;;;;13.85;3.40;;;;;;;8.85;55.04;100152.03;4437261;32;20419;-74
2024/01/25 07:07:50;;;;;;;15.82;4.45;;;;;;;9.20;54.51;100165.81;4422897;32;20144;-74
2024/01/25 07:10:21;;;;;;;11.77;3.58;;;;;;;9.18;54.14;100161.53;4436541;32;20165;-74
2024/01/25 07:12:53;;;;;;;12.23;4.20;;;;;;;9.24;53.68;100167.34;4436649;32;20424;-74
2024/01/25 07:15:26;;;;;;;10.67;3.73;;;;;;;9.21;53.80;100162.22;4440112;26;20132;-74
2024/01/25 07:17:56;;;;;;;11.27;2.90;;;;;;;9.01;54.41;100171.31;4437193;32;20152;-74
2024/01/25 07:20:25;;;;;;;11.02;3.17;;;;;;;9.09;54.20;100168.22;4436950;32;20200;-74
2024/01/25 07:22:54;;;;;;;16.83;3.25;;;;;;;9.33;53.46;100168.56;4436781;32;20179;-74
2024/01/25 07:25:26;;;;;;;17.12;3.60;;;;;;;9.63;52.58;100162.37;4436580;32;20587;-74
2024/01/25 07:27:58;;;;;;;12.45;3.90;;;;;;;9.39;52.98;100149.72;4436667;32;20165;-74
2024/01/25 07:30:27;;;;;;;11.10;3.35;;;;;;;9.37;53.12;100141.00;4436496;32;20157;-74
2024/01/25 07:32:57;;;;;;;10.48;3.00;;;;;;;9.34;53.05;100141.19;4436487;32;20439;-74
2024/01/25 07:35:27;;;;;;;16.80;5.00;;;;;;;9.35;53.01;100143.75;4436934;32;20447;-74
2024/01/25 07:37:57;;;;;;;9.32;3.15;;;;;;;9.30;53.21;100147.59;4436400;32;20186;-74
2024/01/25 07:40:28;;;;;;;15.52;3.85;;;;;;;9.59;52.55;100129.97;4436412;32;20161;-74
2024/01/25 07:43:01;;;;;;;13.57;3.72;;;;;;;9.41;53.09;100137.22;4436484;32;20163;-74
2024/01/25 07:45:30;;;;;;;9.45;3.50;;;;;;;9.62;52.51;100137.69;4452638;26;20159;-74
2024/01/25 07:48:02;;;;;;;21.55;4.55;;;;;;;9.67;52.30;100118.91;4436225;32;20140;-74
2024/01/25 07:50:43;;;;;;;10.88;3.65;;;;;;;9.62;51.83;100087.44;4421919;32;20141;-74
2024/01/25 07:53:14;;;;;;;13.95;3.62;;;;;;;9.90;51.57;100109.53;4436874;32;20492;-74
2024/01/25 07:55:43;;;;;;;11.85;5.25;;;;;;;10.00;50.67;100084.19;4438383;32;20148;-74
2024/01/25 07:58:15;;;;;;;11.63;2.62;;;;;;;10.19;49.87;100094.44;4438547;32;20171;-74
2024/01/25 08:00:45;;;;;;;13.35;3.30;;;;;;;10.45;48.64;100112.19;4438334;32;20128;-74
2024/01/25 08:03:16;;;;;;;15.55;3.72;;;;;;;10.73;47.55;100119.16;4438344;32;20148;-74
2024/01/25 08:05:45;;;;;;;7.97;2.97;;;;;;;10.90;47.11;100125.97;4438732;32;20141;-74
2024/01/25 08:08:19;;;;;;;10.88;4.03;;;;;;;11.28;46.26;100120.75;4438797;32;20136;-74
2024/01/25 08:10:49;;;;;;;14.75;4.32;;;;;;;11.74;45.40;100130.78;4438513;32;20191;-74
2024/01/25 08:13:19;;;;;;;9.95;3.30;;;;;;;12.04;44.18;100132.28;4438397;32;20143;-74
2024/01/25 08:15:50;;;;;;;13.35;4.70;;;;;;;12.09;44.41;100130.12;4456011;26;20141;-74
2024/01/25 08:18:22;;;;;;;12.35;3.75;;;;;;;12.55;43.64;100146.25;4436952;32;20121;-74
2024/01/25 08:20:52;;;;;;;12.57;3.92;;;;;;;12.96;42.54;100150.28;4438190;32;20187;-74
2024/01/25 08:23:21;;;;;;;10.32;3.40;;;;;;;13.12;42.36;100149.13;4438514;32;20495;-74
2024/01/25 08:25:50;;;;;;;12.93;3.10;;;;;;;13.43;42.00;100151.19;4437937;32;20465;-74
2024/01/25 08:28:21;;;;;;;20.98;4.15;;;;;;;13.21;42.77;100165.22;4437948;32;20148;-74
2024/01/25 08:30:50;;;;;;;13.90;4.18;;;;;;;13.68;41.90;100160.75;4438211;32;20147;-74
2024/01/25 08:33:24;;;;;;;11.73;3.87;;;;;;;13.96;41.03;100161.25;4438365;32;20144;-74
2024/01/25 08:35:53;;;;;;;11.88;3.85;;;;;;;13.95;41.11;100168.41;4438032;32;20396;-74
2024/01/25 08:38:24;;;;;;;14.52;3.15;;;;;;;14.36;40.73;100158.91;4438294;32;20128;-74
2024/01/25 08:40:53;;;;;;;11.88;3.67;;;;;;;14.48;40.52;100165.91;4436675;32;20139;-74
2024/01/25 08:43:24;;;;;;;12.07;3.25;;;;;;;14.61;39.74;100171.12;4438237;32;20431;-74
2024/01/25 08:45:54;;;;;;;11.23;4.80;;;;;;;14.55;40.23;100178.78;4461116;26;20152;-74
2024/01/25 08:48:24;;;;;;;15.02;3.53;;;;;;;14.25;40.19;100161.56;4437861;32;20165;-74
2024/01/25 08:50:55;;;;;;;16.08;4.07;;;;;;;14.38;40.35;100170.31;4437861;32;20168;-74
2024/01/25 08:53:27;;;;;;;13.40;5.47;;;;;;;14.64;40.10;100173.53;4438282;32;20133;-74
2024/01/25 08:55:56;;;;;;;12.27;3.80;;;;;;;14.28;39.54;100172.00;4438002;32;20199;-74
2024/01/25 08:58:27;;;;;;;9.65;3.37;;;;;;;14.64;39.71;100173.53;4438357;32;20212;-74
2024/01/25 09:00:57;;;;;;;9.45;2.85;;;;;;;14.81;39.07;100177.50;4437657;32;20152;-72
2024/01/25 09:03:27;;;;;;;11.95;3.62;;;;;;;15.18;38.39;100183.28;4437706;32;20164;-72
2024/01/25 09:05:56;;;;;;;9.15;3.45;;;;;;;15.34;37.73;100169.47;4437680;32;20176;-72
2024/01/25 09:08:26;;;;;;;11.30;3.17;;;;;;;15.06;38.69;100178.12;4438306;32;20164;-73
2024/01/25 09:10:56;;;;;;;12.43;3.60;;;;;;;14.48;39.36;100187.22;4437926;32;20215;-74
2024/01/25 09:13:29;;;;;;;13.00;4.10;;;;;;;14.55;39.26;100184.97;4437828;32;20145;-74
2024/01/25 09:15:59;;;;;;;5.78;2.83;;;;;;;14.79;39.53;100187.44;4441506;26;20171;-74
2024/01/25 09:18:28;;;;;;;14.52;4.37;;;;;;;14.88;39.10;100201.84;4437648;32;20156;-74
2024/01/25 09:20:58;;;;;;;15.25;5.05;;;;;;;14.44;39.66;100207.13;4437838;32;20148;-74
2024/01/25 09:23:28;;;;;;;10.95;3.30;;;;;;;14.52;39.75;100191.38;4438287;32;20172;-74
2024/01/25 09:28:36;;;;;;;15.18;4.25;;;;;;;14.05;41.13;100216.47;4437986;32;20153;-74
2024/01/25 09:31:09;;;;;;;14.75;3.55;;;;;;;14.14;40.75;100212.25;4437312;32;20441;-74
2024/01/25 09:33:39;;;;;;;12.25;3.80;;;;;;;13.76;41.64;100218.75;4437731;32;20159;-74
2024/01/25 09:36:12;;;;;;;12.32;3.20;;;;;;;13.62;42.36;100202.97;4437858;32;20141;-74
2024/01/25 09:38:41;;;;;;;13.68;3.62;;;;;;;13.58;41.79;100204.19;4437583;32;20175;-74
2024/01/25 09:41:13;;;;;;;9.77;4.30;;;;;;;13.82;41.07;100204.97;4438048;32;20168;-74
2024/01/25 09:43:46;;;;;;;12.80;3.83;;;;;;;13.70;40.86;100214.75;4443750;26;20128;-74
2024/01/25 09:46:19;;;;;;;12.40;3.83;;;;;;;13.82;39.90;100193.44;4413114;32;20141;-74
2024/01/25 09:48:48;;;;;;;10.48;3.58;;;;;;;13.67;40.07;100195.50;4422803;32;20159;-72
2024/01/25 09:51:19;;;;;;;11.45;4.07;;;;;;;13.98;40.00;100207.28;4421920;32;20491;-72
2024/01/25 09:53:50;;;;;;;9.73;3.50;;;;;;;14.00;38.85;100195.50;4422060;32;20513;-72
2024/01/25 09:56:21;;;;;;;12.25;3.20;;;;;;;13.43;39.79;100199.09;4408620;32;20185;-72
2024/01/25 09:58:53;;;;;;;10.93;4.55;;;;;;;14.03;39.17;100192.63;4422384;32;20445;-74
2024/01/25 10:01:22;;;;;;;14.32;3.67;;;;;;;13.98;39.74;100181.47;4422332;32;20504;-74
2024/01/25 10:03:51;;;;;;;9.27;4.78;;;;;;;14.57;39.11;100193.69;4422229;32;20153;-74
2024/01/25 10:06:21;;;;;;;15.07;4.28;;;;;;;14.66;38.03;100195.59;4422141;32;20148;-74
2024/01/25 10:08:55;;;;;;;10.85;3.47;;;;;;;14.80;38.45;100194.47;4422187;32;20411;-74
2024/01/25 10:11:25;;;;;;;10.70;2.92;;;;;;;14.67;38.53;100189.28;4422729;32;20149;-74
2024/01/25 10:13:56;;;;;;;11.23;3.80;;;;;;;14.88;38.67;100177.81;4429063;26;20148;-74
2024/01/25 10:16:26;;;;;;;9.80;3.35;;;;;;;14.94;38.91;100188.84;4441155;32;20164;-74
2024/01/25 10:18:56;;;;;;;8.57;3.03;;;;;;;14.80;38.01;100185.63;4437334;32;20164;-74
2024/01/25 10:21:30;;;;;;;12.45;2.80;;;;;;;14.54;38.52;100195.75;4437320;32;20159;-74
2024/01/25 10:24:00;;;;;;;12.05;3.35;;;;;;;14.69;37.87;100192.69;4437470;32;20163;-74
2024/01/25 10:26:30;;;;;;;9.90;3.25;;;;;;;14.41;38.31;100179.84;4437880;32;20187;-72
2024/01/25 10:29:03;;;;;;;16.83;3.22;;;;;;;14.41;38.50;100188.72;4437018;32;20137;-72
2024/01/25 10:31:39;;;;;;;10.43;2.87;;;;;;;13.99;38.70;100174.34;4437090;32;20168;-72
2024/01/25 10:34:12;;;;;;;12.80;3.58;;;;;;;14.16;38.90;100173.00;4437338;32;20168;-72
2024/01/25 10:36:42;;;;;;;15.43;3.15;;;;;;;13.99;38.97;100179.66;4437225;32;20292;-72
2024/01/25 10:39:14;;;;;;;11.70;3.45;;;;;;;13.44;39.94;100186.63;4437302;32;20176;-72
2024/01/25 10:41:50;;;;;;;11.55;3.85;;;;;;;13.23;40.42;100181.12;4437261;32;20172;-75
2024/01/25 10:44:22;;;;;;;12.25;4.12;;;;;;;13.59;39.78;100190.78;4434256;26;20144;-72
2024/01/25 10:46:51;;;;;;;12.27;3.83;;;;;;;13.66;40.06;100191.12;4404830;32;20149;-72
2024/01/25 10:49:21;;;;;;;15.20;4.62;;;;;;;13.27;40.30;100186.09;4406571;32;20137;-72
2024/01/25 10:51:50;;;;;;;13.62;3.15;;;;;;;13.34;40.41;100177.62;4406422;32;20138;-72
2024/01/25 10:54:20;;;;;;;8.80;3.15;;;;;;;13.47;39.99;100173.94;4406268;32;20157;-72
2024/01/25 10:56:50;;;;;;;12.35;3.80;;;;;;;13.41;39.63;100166.41;4406397;32;20149;-72
2024/01/25 10:59:19;;;;;;;13.00;3.00;;;;;;;13.61;39.44;100172.00;4406409;32;20168;-72
2024/01/25 11:01:50;;;;;;;10.50;3.30;;;;;;;13.40;39.73;100188.66;4406069;32;20157;-72
2024/01/25 11:04:20;;;;;;;7.82;2.97;;;;;;;13.47;39.56;100183.72;4395357;32;20152;-72
2024/01/25 11:06:50;;;;;;;13.68;3.37;;;;;;;13.49;39.70;100177.31;4390802;32;20419;-72
2024/01/25 11:09:21;;;;;;;15.20;4.20;;;;;;;13.03;40.04;100162.16;4391133;32;20149;-72
2024/01/25 11:11:55;;;;;;;10.32;2.67;;;;;;;13.05;39.77;100172.69;4391040;32;20264;-72
2024/01/25 11:14:28;;;;;;;8.77;2.87;;;;;;;13.20;39.73;100186.66;4416905;27;20503;-72
2024/01/25 11:16:58;;;;;;;15.50;3.00;;;;;;;13.51;38.63;100180.72;4433528;32;20156;-72
2024/01/25 11:19:28;;;;;;;10.18;2.87;;;;;;;13.43;39.12;100172.47;4436427;32;20272;-72
2024/01/25 11:21:58;;;;;;;10.18;3.12;;;;;;;13.27;39.23;100174.59;4436235;32;20144;-72
2024/01/25 11:24:31;;;;;;;10.48;3.15;;;;;;;13.02;39.25;100181.72;4436238;32;20186;-72
2024/01/25 11:27:02;;;;;;;16.55;5.40;;;;;;;13.12;40.09;100167.75;4436505;32;20172;-73
2024/01/25 11:29:31;;;;;;;13.85;3.50;;;;;;;12.95;39.87;100183.16;4437591;32;20156;-74
2024/01/25 11:32:05;;;;;;;11.32;3.30;;;;;;;13.10;40.09;100173.16;4438442;32;20144;-74
2024/01/25 11:34:34;;;;;;;12.05;5.03;;;;;;;13.14;39.80;100165.81;4438102;32;20164;-72
2024/01/25 11:37:04;;;;;;;13.70;3.40;;;;;;;12.34;41.28;100184.16;4438237;32;20180;-72
2024/01/25 11:39:34;;;;;;;12.77;3.40;;;;;;;12.02;42.20;100193.44;4438326;32;20156;-72
2024/01/25 11:42:04;;;;;;;20.88;4.30;;;;;;;11.79;43.00;100186.22;4438054;32;20171;-72
2024/01/25 11:44:33;;;;;;;14.15;4.50;;;;;;;12.12;41.91;100176.88;4448654;26;20164;-72
2024/01/25 11:47:04;;;;;;;9.77;2.80;;;;;;;12.41;41.82;100178.28;4434971;32;20154;-72
2024/01/25 11:49:35;;;;;;;17.15;4.03;;;;;;;12.01;42.53;100177.62;4438370;32;20144;-72
2024/01/25 11:52:07;;;;;;;11.35;3.17;;;;;;;11.91;42.47;100177.41;4438268;32;20133;-72
2024/01/25 11:54:36;;;;;;;17.27;5.20;;;;;;;12.24;42.38;100189.28;4437838;32;20156;-72
2024/01/25 11:57:06;;;;;;;8.45;3.33;;;;;;;12.23;42.27;100175.13;4438394;32;20144;-73
2024/01/25 11:59:35;;;;;;;7.93;3.10;;;;;;;12.43;41.53;100175.50;4438266;32;20156;-72
2024/01/25 12:02:06;;;;;;;18.65;3.70;;;;;;;12.38;41.19;100181.16;4437775;32;20493;-72